createdAt,value
2023-03-02T10:25:51.905Z,18.60
2023-03-02T10:26:51.910Z,24.10
2023-03-02T10:27:51.966Z,22.30
2023-03-02T10:28:51.886Z,20.40
2023-03-02T10:29:51.882Z,20.70
2023-03-02T10:30:51.945Z,17.80
2023-03-02T10:31:51.918Z,22.20
2023-03-02T10:32:51.901Z,19.40
2023-03-02T10:33:51.864Z,21.60
2023-03-02T10:34:51.794Z,18.90
2023-03-02T10:35:51.893Z,19.50
2023-03-02T10:36:51.806Z,17.20
2023-03-02T10:37:51.817Z,20.60
2023-03-02T10:38:51.794Z,19.90
2023-03-02T10:39:51.773Z,15.30
2023-03-02T10:40:51.735Z,19.50
2023-03-02T10:41:51.734Z,19.50
2023-03-02T10:42:51.704Z,18.20
2023-03-02T10:43:51.718Z,23.10
2023-03-02T10:44:51.691Z,17.90
2023-03-02T10:45:51.732Z,17.90
2023-03-02T10:46:51.649Z,21.10
2023-03-02T10:47:51.679Z,17.90
2023-03-02T10:48:51.656Z,18.20
2023-03-02T10:49:54.326Z,20.50
2023-03-02T10:50:51.636Z,18.80
2023-03-02T10:51:51.654Z,16.80
2023-03-02T10:53:00.189Z,18.30
2023-03-02T10:53:51.576Z,20.00
2023-03-02T10:54:51.572Z,16.90
2023-03-02T10:55:51.603Z,21.00
2023-03-02T10:56:51.542Z,19.20
2023-03-02T10:57:51.553Z,19.80
2023-03-02T10:58:51.533Z,18.00
2023-03-02T10:59:51.567Z,17.40
2023-03-02T11:00:51.507Z,18.60
2023-03-02T11:01:51.516Z,15.20
2023-03-02T11:02:51.599Z,19.60
2023-03-02T11:03:51.462Z,15.80
2023-03-02T11:04:51.573Z,17.40
2023-03-02T11:05:51.456Z,18.30
2023-03-02T11:06:53.579Z,19.10
2023-03-02T11:08:06.389Z,18.20
2023-03-02T11:08:51.436Z,17.30
2023-03-02T11:09:51.416Z,17.20
2023-03-02T11:10:51.447Z,18.90
2023-03-02T11:11:51.444Z,18.60
2023-03-02T11:12:51.380Z,16.40
2023-03-02T11:13:51.367Z,17.70
2023-03-02T11:14:51.354Z,16.40
2023-03-02T11:15:51.363Z,16.20
2023-03-02T11:16:51.341Z,17.00
2023-03-02T11:17:51.322Z,14.70
2023-03-02T11:18:51.391Z,16.60
2023-03-02T11:19:51.310Z,19.90
2023-03-02T11:20:51.303Z,16.60
2023-03-02T11:21:51.269Z,14.80
2023-03-02T11:22:51.284Z,20.10
2023-03-02T11:23:51.295Z,17.70
2023-03-02T11:24:51.241Z,15.90
2023-03-02T11:25:51.250Z,16.50
2023-03-02T11:26:51.213Z,17.20
2023-03-02T11:27:51.237Z,17.10
2023-03-02T11:28:51.190Z,17.00
2023-03-02T11:29:51.213Z,17.20
2023-03-02T11:30:51.180Z,15.60
2023-03-02T11:31:51.301Z,19.80
2023-03-02T11:32:51.190Z,14.30
2023-03-02T11:33:51.216Z,17.90
2023-03-02T11:34:51.151Z,14.70
2023-03-02T11:35:51.158Z,17.60
2023-03-02T11:36:51.107Z,16.90
2023-03-02T11:37:51.123Z,16.30
2023-03-02T11:38:51.107Z,16.20
2023-03-02T11:39:55.744Z,17.80
2023-03-02T11:40:51.085Z,17.50
2023-03-02T11:41:51.063Z,16.80
2023-03-02T11:42:51.040Z,14.00
2023-03-02T11:43:51.034Z,15.80
2023-03-02T11:44:51.015Z,15.20
2023-03-02T11:45:51.049Z,17.10
2023-03-02T11:46:51.080Z,16.20
2023-03-02T11:47:57.646Z,18.00
2023-03-02T11:48:50.980Z,15.30
2023-03-02T11:49:50.965Z,16.30
2023-03-02T11:50:50.971Z,17.20
2023-03-02T11:58:04.193Z,15.60
2023-03-02T11:58:09.179Z,14.20
2023-03-02T11:59:09.920Z,14.40
2023-03-02T12:00:09.147Z,13.20
2023-03-02T12:01:09.176Z,14.20
2023-03-02T12:02:09.193Z,16.10
2023-03-02T12:03:09.186Z,13.90
2023-03-02T12:04:09.102Z,13.20
2023-03-02T12:05:09.257Z,13.30
2023-03-02T12:06:09.074Z,14.80
2023-03-02T12:07:09.061Z,12.90
2023-03-02T12:08:09.040Z,13.00
2023-03-02T12:09:09.112Z,13.50
2023-03-02T12:10:09.032Z,13.00
2023-03-02T12:11:09.060Z,15.00
2023-03-02T12:12:09.004Z,14.10
2023-03-02T12:13:09.013Z,13.20
2023-03-02T12:14:09.009Z,15.30
2023-03-02T12:15:08.994Z,11.90
2023-03-02T12:16:09.070Z,16.10
2023-03-02T12:17:09.756Z,11.90
2023-03-02T12:18:08.959Z,14.50
2023-03-02T12:19:08.936Z,12.20
2023-03-02T12:20:08.932Z,11.10
2023-03-02T12:21:09.775Z,11.60
2023-03-02T12:22:08.899Z,10.70
2023-03-02T12:23:08.907Z,12.50
2023-03-02T12:24:08.881Z,10.00
2023-03-02T12:25:08.876Z,12.60
2023-03-02T12:26:08.873Z,11.20
2023-03-02T12:27:08.839Z,11.90
2023-03-02T12:28:08.822Z,12.00
2023-03-02T12:29:08.809Z,14.00
2023-03-02T12:30:08.983Z,12.80
2023-03-02T12:31:08.837Z,12.10
2023-03-02T12:32:08.899Z,14.20
2023-03-02T12:33:08.818Z,11.80
2023-03-02T12:34:08.791Z,12.60
2023-03-02T12:35:08.860Z,11.40
2023-03-02T12:36:08.785Z,11.60
2023-03-02T12:37:08.767Z,14.10
2023-03-02T12:38:08.796Z,10.50
2023-03-02T12:39:08.715Z,12.30
2023-03-02T12:40:08.724Z,11.50
2023-03-02T12:41:08.735Z,16.10
2023-03-02T12:42:08.711Z,12.80
2023-03-02T12:43:08.703Z,12.60
2023-03-02T12:44:08.677Z,12.80
2023-03-02T12:45:08.672Z,12.40
2023-03-02T12:46:08.669Z,12.80
2023-03-02T12:47:08.831Z,12.40
2023-03-02T12:48:08.736Z,11.20
2023-03-02T12:49:09.656Z,12.10
2023-03-02T12:50:08.589Z,13.50
2023-03-02T12:51:08.627Z,14.20
2023-03-02T12:52:08.648Z,11.80
2023-03-02T12:53:08.593Z,12.30
2023-03-02T12:54:08.532Z,10.40
2023-03-02T12:55:08.555Z,14.10
2023-03-02T12:56:08.628Z,11.20
2023-03-02T12:57:08.578Z,11.90
2023-03-02T12:58:08.942Z,10.90
2023-03-02T12:59:08.504Z,13.00
2023-03-02T13:00:08.491Z,12.50
2023-03-02T13:01:08.646Z,14.00
2023-03-02T13:02:08.466Z,13.00
2023-03-02T13:03:09.450Z,10.90
2023-03-02T13:04:08.460Z,11.10
2023-03-02T13:05:08.458Z,9.30
2023-03-02T13:06:08.403Z,10.70
2023-03-02T13:07:08.428Z,10.80
2023-03-02T13:08:08.383Z,10.40
2023-03-02T13:09:08.475Z,12.40
2023-03-02T13:10:08.609Z,11.40
2023-03-02T13:11:09.868Z,13.90
2023-03-02T13:12:08.398Z,12.80
2023-03-02T13:13:08.378Z,12.60
2023-03-02T13:14:08.343Z,12.60
2023-03-02T13:15:09.289Z,11.80
2023-03-02T13:16:08.376Z,10.10
2023-03-02T13:17:08.458Z,11.90
2023-03-02T13:18:08.278Z,13.30
2023-03-02T13:19:08.289Z,13.90
2023-03-02T13:20:09.423Z,10.60
2023-03-02T13:21:08.258Z,11.60
2023-03-02T13:22:08.383Z,13.20
2023-03-02T13:23:08.262Z,11.70
2023-03-02T13:24:08.245Z,11.50
2023-03-02T13:25:08.193Z,11.50
2023-03-02T13:26:08.179Z,16.30
2023-03-02T13:27:08.387Z,11.20
2023-03-02T13:28:08.175Z,10.20
2023-03-02T13:29:08.173Z,12.90
2023-03-02T13:30:08.141Z,10.70
2023-03-02T13:31:08.250Z,10.50
2023-03-02T13:32:08.190Z,9.90
2023-03-02T13:33:08.116Z,11.40
2023-03-02T13:34:08.099Z,10.60
2023-03-02T13:35:08.095Z,15.10
2023-03-02T13:36:08.093Z,12.30
2023-03-02T13:37:08.076Z,11.20
2023-03-02T13:38:08.133Z,12.30
2023-03-02T13:39:08.065Z,14.70
2023-03-02T13:40:08.033Z,13.50
2023-03-02T13:41:10.065Z,15.20
2023-03-02T13:42:08.030Z,14.20
2023-03-02T13:43:07.994Z,14.20
2023-03-02T13:44:07.997Z,13.80
2023-03-02T13:45:08.045Z,11.10
2023-03-02T13:46:08.132Z,12.50
2023-03-02T13:47:07.961Z,11.10
2023-03-02T13:48:07.957Z,11.30
2023-03-02T13:49:10.571Z,12.80
2023-03-02T13:50:07.976Z,15.60
2023-03-02T13:51:07.972Z,12.90
2023-03-02T13:52:08.460Z,13.60
2023-03-02T13:53:07.893Z,11.50
2023-03-02T13:54:07.863Z,10.30
2023-03-02T13:55:07.917Z,12.40
2023-03-02T13:56:07.843Z,12.60
2023-03-02T13:57:07.870Z,10.60
2023-03-02T13:58:07.825Z,11.60
2023-03-02T13:59:07.916Z,11.80
2023-03-02T14:00:07.818Z,11.90
2023-03-02T14:01:07.835Z,12.90
2023-03-02T14:02:07.805Z,10.00
2023-03-02T14:03:07.774Z,11.60
2023-03-02T14:04:07.905Z,10.80
2023-03-02T14:05:07.911Z,13.00
2023-03-02T14:06:07.736Z,13.70
2023-03-02T14:07:07.834Z,10.60
2023-03-02T14:08:07.729Z,11.40
2023-03-02T14:09:07.718Z,10.00
2023-03-02T14:10:07.683Z,13.00
2023-03-02T14:11:07.694Z,11.80
2023-03-02T14:12:07.664Z,13.20
2023-03-02T14:13:07.688Z,9.20
2023-03-02T14:14:07.647Z,12.70
2023-03-02T14:15:07.686Z,11.70
2023-03-02T14:16:07.632Z,11.40
2023-03-02T14:17:07.639Z,11.30
2023-03-02T14:18:07.618Z,11.60
2023-03-02T14:19:07.603Z,13.70
2023-03-02T14:20:07.589Z,15.90
2023-03-02T14:21:07.765Z,12.70
2023-03-02T14:22:07.552Z,11.30
2023-03-02T14:23:07.988Z,12.80
2023-03-02T14:24:07.546Z,12.40
2023-03-02T14:25:07.542Z,12.20
2023-03-02T14:26:07.545Z,12.00
2023-03-02T14:27:07.499Z,16.30
2023-03-02T14:28:07.564Z,10.10
2023-03-02T14:29:07.484Z,13.70
2023-03-02T14:30:07.477Z,10.00
2023-03-02T14:31:07.506Z,11.10
2023-03-02T14:32:07.514Z,13.30
2023-03-02T14:33:07.449Z,11.20
2023-03-02T14:34:07.426Z,12.00
2023-03-02T14:35:07.453Z,13.20
2023-03-02T14:36:07.414Z,12.70
2023-03-02T14:37:07.417Z,11.80
2023-03-02T14:38:07.428Z,10.60
2023-03-02T14:39:07.403Z,14.20
2023-03-02T14:40:07.371Z,13.40
2023-03-02T14:41:07.451Z,10.80
2023-03-02T14:42:07.447Z,11.60
2023-03-02T14:43:07.333Z,12.10
2023-03-02T14:44:07.327Z,11.90
2023-03-02T14:45:07.314Z,10.20
2023-03-02T14:46:07.309Z,12.70
2023-03-02T14:47:07.345Z,9.90
2023-03-02T14:48:07.291Z,10.70
2023-03-02T14:49:07.268Z,13.30
2023-03-02T14:50:07.252Z,16.80
2023-03-02T14:51:07.247Z,13.10
2023-03-02T14:52:07.238Z,10.90
2023-03-02T14:53:07.256Z,10.30
2023-03-02T14:54:07.253Z,11.20
2023-03-02T14:55:07.235Z,10.00
2023-03-02T14:56:07.258Z,14.50
2023-03-02T14:57:07.216Z,13.30
2023-03-02T14:58:07.231Z,12.10
2023-03-02T14:59:07.204Z,11.90
2023-03-02T15:00:07.138Z,12.80
2023-03-02T15:01:07.129Z,11.60
2023-03-02T15:02:22.696Z,14.00
2023-03-02T15:03:08.013Z,13.30
2023-03-02T15:04:07.112Z,13.60
2023-03-02T15:05:07.119Z,12.40
2023-03-02T15:06:07.092Z,18.20
2023-03-02T15:07:07.082Z,20.10
2023-03-02T15:08:07.065Z,21.80
2023-03-02T15:09:07.052Z,18.70
2023-03-02T15:10:07.050Z,19.30
2023-03-02T15:11:07.058Z,20.70
2023-03-02T15:12:07.018Z,23.20
2023-03-02T15:13:07.064Z,21.80
2023-03-02T15:14:06.993Z,20.10
2023-03-02T15:15:06.981Z,28.00
2023-03-02T15:16:07.140Z,20.10
2023-03-02T15:17:07.006Z,26.60
2023-03-02T15:18:06.969Z,22.40
2023-03-02T15:19:06.977Z,26.40
2023-03-02T15:20:06.994Z,19.70
2023-03-02T15:21:06.966Z,21.80
2023-03-02T15:22:06.913Z,18.70
2023-03-02T15:23:07.786Z,21.10
2023-03-02T15:24:06.982Z,19.70
2023-03-02T15:25:06.891Z,19.20
2023-03-02T15:26:06.922Z,24.00
2023-03-02T15:27:06.867Z,18.20
2023-03-02T15:28:06.844Z,20.50
2023-03-02T15:29:06.840Z,26.40
2023-03-02T15:30:06.925Z,23.20
2023-03-02T15:31:06.904Z,21.40
2023-03-02T15:32:06.831Z,21.30
2023-03-02T15:33:07.011Z,25.80
2023-03-02T15:34:06.784Z,23.50
2023-03-02T15:35:06.765Z,24.30
2023-03-02T15:36:06.768Z,25.00
2023-03-02T15:37:06.749Z,29.50
2023-03-02T15:38:06.761Z,26.30
2023-03-02T15:39:06.792Z,25.20
2023-03-02T15:40:06.719Z,22.30
2023-03-02T15:41:06.699Z,24.40
2023-03-02T15:42:06.732Z,23.10
2023-03-02T15:43:06.688Z,23.90
2023-03-02T15:44:06.763Z,25.30
2023-03-02T15:45:06.643Z,26.20
2023-03-02T15:46:06.688Z,26.00
2023-03-02T15:47:06.636Z,25.60
2023-03-02T15:48:06.688Z,21.80
2023-03-02T15:49:06.630Z,25.40
2023-03-02T15:50:06.657Z,25.40
2023-03-02T15:51:06.577Z,23.40
2023-03-02T15:52:06.629Z,25.10
2023-03-02T15:53:06.549Z,24.20
2023-03-02T15:54:06.566Z,24.40
2023-03-02T15:55:06.530Z,23.10
2023-03-02T15:56:07.269Z,27.40
2023-03-02T15:57:06.565Z,27.90
2023-03-02T15:58:06.826Z,23.60
2023-03-02T15:59:27.470Z,26.10
2023-03-02T16:00:06.476Z,24.20
2023-03-02T16:01:06.551Z,24.50
2023-03-02T16:02:06.538Z,25.50
2023-03-02T16:03:06.568Z,24.40
2023-03-02T16:04:06.466Z,21.90
2023-03-02T16:05:06.432Z,23.10
2023-03-02T16:06:06.445Z,24.10
2023-03-02T16:07:06.423Z,21.30
2023-03-02T16:08:06.435Z,25.90
2023-03-02T16:09:06.420Z,23.60
2023-03-02T16:10:14.409Z,24.50
2023-03-02T16:11:06.431Z,23.90
2023-03-02T16:12:06.358Z,27.30
2023-03-02T16:13:06.343Z,28.60
2023-03-02T16:14:06.343Z,21.40
2023-03-02T16:15:06.329Z,26.50
2023-03-02T16:16:06.457Z,28.80
2023-03-02T16:17:06.305Z,23.20
2023-03-02T16:18:06.285Z,24.70
2023-03-02T16:19:06.278Z,24.40
2023-03-02T16:20:06.271Z,25.20
2023-03-02T16:21:06.360Z,25.40
2023-03-02T16:22:15.754Z,24.60
2023-03-02T16:23:06.261Z,24.10
2023-03-02T16:24:06.249Z,27.00
2023-03-02T16:25:06.205Z,26.60
2023-03-02T16:26:27.221Z,23.30
2023-03-02T16:27:06.173Z,28.00
2023-03-02T16:28:06.180Z,28.20
2023-03-02T16:29:06.203Z,27.80
2023-03-02T16:30:06.163Z,26.60
2023-03-02T16:31:43.073Z,27.00
2023-03-02T16:32:06.204Z,29.80
2023-03-02T16:33:06.171Z,26.20
2023-03-02T16:34:06.128Z,24.50
2023-03-02T16:35:06.144Z,25.50
2023-03-02T16:36:06.166Z,23.50
2023-03-02T16:37:06.108Z,28.40
2023-03-02T16:38:07.734Z,23.80
2023-03-02T16:39:06.072Z,28.40
2023-03-02T16:40:06.145Z,24.40
2023-03-02T16:41:08.646Z,27.80
2023-03-02T16:42:06.020Z,35.10
2023-03-02T16:43:05.999Z,27.00
2023-03-02T16:44:06.016Z,30.60
2023-03-02T16:45:06.103Z,26.10
2023-03-02T16:46:06.105Z,33.60
2023-03-02T16:47:06.003Z,30.80
2023-03-02T16:48:05.968Z,24.20
2023-03-02T16:49:05.968Z,29.50
2023-03-02T16:50:05.957Z,27.30
2023-03-02T16:51:05.960Z,24.60
2023-03-02T16:52:05.923Z,27.50
2023-03-02T16:53:05.945Z,28.70
2023-03-02T16:54:05.984Z,26.60
2023-03-02T16:55:05.914Z,25.40
2023-03-02T16:56:05.865Z,27.40
2023-03-02T16:57:05.873Z,30.00
2023-03-02T16:58:05.915Z,29.50
2023-03-02T16:59:05.860Z,28.20
2023-03-02T17:00:05.870Z,28.60
2023-03-02T17:01:06.001Z,25.50
2023-03-02T17:02:05.806Z,31.70
2023-03-02T17:03:05.796Z,29.90
2023-03-02T17:04:06.182Z,29.90
2023-03-02T17:05:05.775Z,28.40
2023-03-02T17:06:05.760Z,28.50
2023-03-02T17:07:05.737Z,31.70
2023-03-02T17:08:05.745Z,34.20
2023-03-02T17:09:05.776Z,32.00
2023-03-02T17:10:05.835Z,28.80
2023-03-02T17:11:06.032Z,32.30
2023-03-02T17:12:07.354Z,27.50
2023-03-02T17:13:05.764Z,26.80
2023-03-02T17:14:05.726Z,34.10
2023-03-02T17:15:05.707Z,32.60
2023-03-02T17:16:05.839Z,31.70
2023-03-02T17:17:05.635Z,27.60
2023-03-02T17:18:05.631Z,30.40
2023-03-02T17:21:22.527Z,28.90
2023-03-02T17:22:22.936Z,29.70
2023-03-02T17:25:05.980Z,29.50
2023-03-02T17:26:06.011Z,31.10
2023-03-02T17:27:15.909Z,31.90
2023-03-02T17:28:05.948Z,28.70
2023-03-02T17:29:05.942Z,27.20
2023-03-02T17:30:11.225Z,26.60
2023-03-02T17:32:30.559Z,29.60
2023-03-02T17:33:30.543Z,27.60
2023-03-02T17:34:30.544Z,31.30
2023-03-02T17:35:30.494Z,28.20
2023-03-02T17:36:31.356Z,29.40
2023-03-02T17:37:39.506Z,30.40
2023-03-02T17:38:30.457Z,30.30
2023-03-02T17:39:30.455Z,31.20
2023-03-02T17:42:11.233Z,32.30
2023-03-02T17:43:11.846Z,32.00
2023-03-02T17:44:11.542Z,32.20
2023-03-02T17:45:12.671Z,31.50
2023-03-02T17:46:10.862Z,34.30
2023-03-02T17:47:10.790Z,29.90
2023-03-02T17:48:10.846Z,30.60
2023-03-02T17:49:10.765Z,34.70
2023-03-02T17:50:10.757Z,35.70
2023-03-02T17:51:10.745Z,34.60
2023-03-02T17:52:10.729Z,31.30
2023-03-02T17:53:10.737Z,29.90
2023-03-02T17:54:10.718Z,31.00
2023-03-02T17:55:10.747Z,32.00
2023-03-02T17:56:10.691Z,37.60
2023-03-02T17:57:10.696Z,33.50
2023-03-02T17:58:10.657Z,33.50
2023-03-02T17:59:10.650Z,32.40
2023-03-02T18:00:10.693Z,34.60
2023-03-02T18:01:10.665Z,35.30
2023-03-02T18:02:10.714Z,33.40
2023-03-02T18:03:10.965Z,32.70
2023-03-02T18:04:10.715Z,29.60
2023-03-02T18:05:10.962Z,36.40
2023-03-02T18:06:10.603Z,34.70
2023-03-02T18:07:10.619Z,28.30
2023-03-02T18:08:13.366Z,30.80
2023-03-02T18:09:10.562Z,36.30
2023-03-02T18:10:13.167Z,34.30
2023-03-02T18:11:13.104Z,42.90
2023-03-02T18:12:10.530Z,36.70
2023-03-02T18:13:10.561Z,34.30
2023-03-02T18:14:10.493Z,31.90
2023-03-02T18:15:10.467Z,32.10
2023-03-02T18:16:10.514Z,37.80
2023-03-02T18:17:10.446Z,34.50
2023-03-02T18:18:10.460Z,34.20
2023-03-02T18:19:10.444Z,32.30
2023-03-02T18:20:10.483Z,34.90
2023-03-02T18:21:10.463Z,35.10
2023-03-02T18:22:10.727Z,34.90
2023-03-02T18:23:10.396Z,38.50
2023-03-02T18:24:10.404Z,31.90
2023-03-02T18:25:10.446Z,34.70
2023-03-02T18:26:11.285Z,29.90
2023-03-02T18:27:10.342Z,33.60
2023-03-02T18:28:10.344Z,34.80
2023-03-02T18:29:10.322Z,37.80
2023-03-02T18:30:10.307Z,37.00
2023-03-02T18:31:11.126Z,38.90
2023-03-02T18:32:10.365Z,37.10
2023-03-02T18:33:10.368Z,34.60
2023-03-02T18:34:10.527Z,32.70
2023-03-02T18:35:10.250Z,35.10
2023-03-02T18:36:10.260Z,37.30
2023-03-02T18:37:10.229Z,38.30
2023-03-02T18:38:10.213Z,32.90
2023-03-02T18:39:10.214Z,36.50
2023-03-02T18:40:10.236Z,38.20
2023-03-02T18:41:10.201Z,36.20
2023-03-02T18:42:12.488Z,39.10
2023-03-02T18:43:10.156Z,33.60
2023-03-02T18:44:10.185Z,35.00
2023-03-02T18:45:10.149Z,34.30
2023-03-02T18:46:10.185Z,34.70
2023-03-02T18:47:10.116Z,33.80
2023-03-02T18:48:10.096Z,38.50
2023-03-02T18:49:10.092Z,37.80
2023-03-02T18:50:10.084Z,35.90
2023-03-02T18:51:10.081Z,42.10
2023-03-02T18:52:10.865Z,37.20
2023-03-02T18:53:12.490Z,37.50
2023-03-02T18:54:10.035Z,37.60
2023-03-02T18:55:10.054Z,39.90
2023-03-02T18:56:10.125Z,33.30
2023-03-02T18:57:10.019Z,39.10
2023-03-02T18:58:09.998Z,34.30
2023-03-02T18:59:10.001Z,36.90
2023-03-02T19:00:09.971Z,39.20
2023-03-02T19:01:10.076Z,37.20
2023-03-02T19:02:09.997Z,35.80
2023-03-02T19:03:09.937Z,37.70
2023-03-02T19:04:09.933Z,31.50
2023-03-02T19:05:10.724Z,32.80
2023-03-02T19:06:09.928Z,36.90
2023-03-02T19:07:09.899Z,37.80
2023-03-02T19:08:10.010Z,33.50
2023-03-02T19:09:09.885Z,39.60
2023-03-02T19:10:09.878Z,30.70
2023-03-02T19:11:09.860Z,32.50
2023-03-02T19:12:09.887Z,34.70
2023-03-02T19:13:09.844Z,34.10
2023-03-02T19:14:09.839Z,39.70
2023-03-02T19:15:09.818Z,38.20
2023-03-02T19:16:09.961Z,33.40
2023-03-02T19:17:09.828Z,34.90
2023-03-02T19:18:09.795Z,33.50
2023-03-02T19:19:09.808Z,40.50
2023-03-02T19:20:09.769Z,36.10
2023-03-02T19:21:09.777Z,40.20
2023-03-02T19:22:09.753Z,37.10
2023-03-02T19:23:10.553Z,34.60
2023-03-02T19:24:09.775Z,41.20
2023-03-02T19:25:09.697Z,38.10
2023-03-02T19:26:09.748Z,32.90
2023-03-02T19:27:11.461Z,39.80
2023-03-02T19:28:09.671Z,32.60
2023-03-02T19:29:09.654Z,34.80
2023-03-02T19:30:09.651Z,33.70
2023-03-02T19:31:09.673Z,37.40
2023-03-02T19:32:09.707Z,36.80
2023-03-02T19:33:09.612Z,31.20
2023-03-02T19:34:09.643Z,36.00
2023-03-02T19:35:09.590Z,40.80
2023-03-02T19:36:09.601Z,32.00
2023-03-02T19:37:09.663Z,37.70
2023-03-02T19:38:09.624Z,43.20
2023-03-02T19:39:09.570Z,33.70
2023-03-02T19:40:09.570Z,32.10
2023-03-02T19:41:09.532Z,38.70
2023-03-02T19:42:09.527Z,36.70
2023-03-02T19:43:09.513Z,38.40
2023-03-02T19:44:09.513Z,37.80
2023-03-02T19:45:09.480Z,33.70
2023-03-02T19:46:09.497Z,33.90
2023-03-02T19:47:09.474Z,35.50
2023-03-02T19:48:09.446Z,38.30
2023-03-02T19:49:09.568Z,37.90
2023-03-02T19:50:09.420Z,37.10
2023-03-02T19:51:09.447Z,35.20
2023-03-02T19:52:09.432Z,41.00
2023-03-02T19:53:09.382Z,36.80
2023-03-02T19:54:09.384Z,36.40
2023-03-02T19:55:10.721Z,33.50
2023-03-02T19:56:09.372Z,31.30
2023-03-02T19:57:09.447Z,33.20
2023-03-02T19:58:09.330Z,38.90
2023-03-02T19:59:09.318Z,35.00
2023-03-02T20:00:09.322Z,36.70
2023-03-02T20:01:11.002Z,36.70
2023-03-02T20:02:09.737Z,32.10
2023-03-02T20:03:09.292Z,39.60
2023-03-02T20:04:09.278Z,35.60
2023-03-02T20:05:09.256Z,39.80
2023-03-02T20:06:09.272Z,33.60
2023-03-02T20:07:09.277Z,39.30
2023-03-02T20:08:09.227Z,33.00
2023-03-02T20:09:09.206Z,36.30
2023-03-02T20:10:09.267Z,39.00
2023-03-02T20:11:09.222Z,37.80
2023-03-02T20:12:09.212Z,40.40
2023-03-02T20:13:09.187Z,35.10
2023-03-02T20:14:09.170Z,39.00
2023-03-02T20:15:09.186Z,34.90
2023-03-02T20:16:09.228Z,34.00
2023-03-02T20:17:09.206Z,37.90
2023-03-02T20:18:09.137Z,37.90
2023-03-02T20:19:09.148Z,42.80
2023-03-02T20:20:09.100Z,38.80
2023-03-02T20:21:09.098Z,37.50
2023-03-02T20:22:09.086Z,36.30
2023-03-02T20:23:09.893Z,33.30
2023-03-02T20:24:09.309Z,37.10
2023-03-02T20:25:09.081Z,34.80
2023-03-02T20:26:09.048Z,37.90
2023-03-02T20:27:09.033Z,32.60
2023-03-02T20:28:09.003Z,43.30
2023-03-02T20:29:09.039Z,34.40
2023-03-02T20:30:09.091Z,35.60
2023-03-02T20:31:09.087Z,39.20
2023-03-02T20:32:09.145Z,37.10
2023-03-02T20:33:08.999Z,39.40
2023-03-02T20:34:08.931Z,35.00
2023-03-02T20:35:08.928Z,33.00
2023-03-02T20:36:08.954Z,35.00
2023-03-02T20:37:08.930Z,35.30
2023-03-02T20:38:08.889Z,32.60
2023-03-02T20:39:08.904Z,35.10
2023-03-02T20:40:08.928Z,35.00
2023-03-02T20:41:08.870Z,32.80
2023-03-02T20:42:08.870Z,32.40
2023-03-02T20:43:08.865Z,35.10
2023-03-02T20:44:08.867Z,38.40
2023-03-02T20:45:09.024Z,36.20
2023-03-02T20:46:08.858Z,31.50
2023-03-02T20:47:08.826Z,32.90
2023-03-02T20:48:08.806Z,35.90
2023-03-02T20:49:08.769Z,37.00
2023-03-02T20:50:08.754Z,34.00
2023-03-02T20:51:08.774Z,37.80
2023-03-02T20:52:08.770Z,38.90
2023-03-02T20:53:08.742Z,38.10
2023-03-02T20:54:08.731Z,31.80
2023-03-02T20:55:08.714Z,31.10
2023-03-02T20:56:08.820Z,33.80
2023-03-02T20:57:08.717Z,34.20
2023-03-02T20:58:08.704Z,32.90
2023-03-02T20:59:08.879Z,33.60
2023-03-02T21:00:08.656Z,38.50
2023-03-02T21:01:08.747Z,33.20
2023-03-02T21:02:08.646Z,33.50
2023-03-02T21:03:08.635Z,31.50
2023-03-02T21:04:08.721Z,32.80
2023-03-02T21:05:08.594Z,38.70
2023-03-02T21:06:08.582Z,34.30
2023-03-02T21:07:08.568Z,34.80
2023-03-02T21:08:08.571Z,33.50
2023-03-02T21:09:08.770Z,38.20
2023-03-02T21:10:08.563Z,41.40
2023-03-02T21:11:08.516Z,34.80
2023-03-02T21:12:08.531Z,39.50
2023-03-02T21:13:08.516Z,38.90
2023-03-02T21:14:08.687Z,36.20
2023-03-02T21:15:08.486Z,34.30
2023-03-02T21:16:08.576Z,37.80
2023-03-02T21:17:08.465Z,36.20
2023-03-02T21:18:08.486Z,36.40
2023-03-02T21:19:08.581Z,37.40
2023-03-02T21:20:08.431Z,33.30
2023-03-02T21:21:08.415Z,35.80
2023-03-02T21:22:08.475Z,34.10
2023-03-02T21:23:08.421Z,35.50
2023-03-02T21:24:08.847Z,31.50
2023-03-02T21:25:08.366Z,33.70
2023-03-02T21:26:08.363Z,36.00
2023-03-02T21:27:08.362Z,36.00
2023-03-02T21:28:08.359Z,37.60
2023-03-02T21:29:08.546Z,37.30
2023-03-02T21:30:08.324Z,35.20
2023-03-02T21:31:08.340Z,34.80
2023-03-02T21:32:08.328Z,33.90
2023-03-02T21:33:08.300Z,36.00
2023-03-02T21:34:08.269Z,36.30
2023-03-02T21:35:08.260Z,38.20
2023-03-02T21:36:08.248Z,34.30
2023-03-02T21:37:08.251Z,36.30
2023-03-02T21:38:08.249Z,31.00
2023-03-02T21:39:08.235Z,34.20
2023-03-02T21:40:08.219Z,38.90
2023-03-02T21:41:08.189Z,34.40
2023-03-02T21:42:08.191Z,33.30
2023-03-02T21:43:08.186Z,36.60
2023-03-02T21:44:08.173Z,31.70
2023-03-02T21:45:08.151Z,31.90
2023-03-02T21:46:08.184Z,36.80
2023-03-02T21:47:08.140Z,33.60
2023-03-02T21:48:08.134Z,35.90
2023-03-02T21:49:08.109Z,33.50
2023-03-02T21:50:08.236Z,37.40
2023-03-02T21:51:08.088Z,34.80
2023-03-02T21:52:08.086Z,33.80
2023-03-02T21:53:08.071Z,37.50
2023-03-02T21:54:08.047Z,36.30
2023-03-02T21:55:08.041Z,35.90
2023-03-02T21:56:08.031Z,38.20
2023-03-02T21:57:08.055Z,34.40
2023-03-02T21:58:08.014Z,36.60
2023-03-02T21:59:08.016Z,38.00
2023-03-02T22:00:08.000Z,36.50
2023-03-02T22:01:07.979Z,35.30
2023-03-02T22:02:08.100Z,33.00
2023-03-02T22:03:07.983Z,35.90
2023-03-02T22:04:07.953Z,36.60
2023-03-02T22:05:07.988Z,35.70
2023-03-02T22:06:07.943Z,35.10
2023-03-02T22:07:07.912Z,35.10
2023-03-02T22:08:07.953Z,35.60
2023-03-02T22:09:07.887Z,35.90
2023-03-02T22:10:07.898Z,36.40
2023-03-02T22:11:07.865Z,34.60
2023-03-02T22:12:07.885Z,36.80
2023-03-02T22:13:07.865Z,33.90
2023-03-02T22:14:07.832Z,37.80
2023-03-02T22:15:07.884Z,36.10
2023-03-02T22:16:07.871Z,37.60
2023-03-02T22:17:07.815Z,35.00
2023-03-02T22:18:07.803Z,35.50
2023-03-02T22:19:07.807Z,36.20
2023-03-02T22:20:07.788Z,38.00
2023-03-02T22:21:07.758Z,30.50
2023-03-02T22:22:07.742Z,37.20
2023-03-02T22:23:07.737Z,38.40
2023-03-02T22:24:07.734Z,35.10
2023-03-02T22:25:07.743Z,35.00
2023-03-02T22:26:07.712Z,35.70
2023-03-02T22:27:07.732Z,37.70
2023-03-02T22:28:07.775Z,35.00
2023-03-02T22:29:07.691Z,37.70
2023-03-02T22:30:07.670Z,33.70
2023-03-02T22:31:07.660Z,36.50
2023-03-02T22:32:07.722Z,35.30
2023-03-02T22:33:07.674Z,37.60
2023-03-02T22:34:07.648Z,34.20
2023-03-02T22:35:07.614Z,36.00
2023-03-02T22:36:07.754Z,31.70
2023-03-02T22:37:07.587Z,31.70
2023-03-02T22:38:07.575Z,31.50
2023-03-02T22:39:07.691Z,38.30
2023-03-02T22:40:07.548Z,36.50
2023-03-02T22:41:07.588Z,35.50
2023-03-02T22:42:07.533Z,38.80
2023-03-02T22:43:07.530Z,35.50
2023-03-02T22:44:07.513Z,36.60
2023-03-02T22:45:07.499Z,34.40
2023-03-02T22:46:07.509Z,36.60
2023-03-02T22:47:07.518Z,36.50
2023-03-02T22:48:07.473Z,35.00
2023-03-02T22:49:07.479Z,36.60
2023-03-02T22:50:07.474Z,38.50
2023-03-02T22:51:07.470Z,36.20
2023-03-02T22:52:07.419Z,33.20
2023-03-02T22:53:07.446Z,32.30
2023-03-02T22:54:07.433Z,40.70
2023-03-02T22:55:07.391Z,32.10
2023-03-02T22:56:07.372Z,34.50
2023-03-02T22:57:07.371Z,36.00
2023-03-02T22:58:07.361Z,42.50
2023-03-02T22:59:07.374Z,34.00
2023-03-02T23:00:07.360Z,34.60
2023-03-02T23:01:07.386Z,32.60
2023-03-02T23:02:07.310Z,32.30
2023-03-02T23:03:07.372Z,45.10
2023-03-02T23:04:07.389Z,31.80
2023-03-02T23:05:07.275Z,34.40
2023-03-02T23:06:07.333Z,35.60
2023-03-02T23:07:07.300Z,38.40
2023-03-02T23:08:07.339Z,35.20
2023-03-02T23:09:07.256Z,34.10
2023-03-02T23:10:07.245Z,31.30
2023-03-02T23:11:07.245Z,32.80
2023-03-02T23:12:07.212Z,32.60
2023-03-02T23:13:07.236Z,34.80
2023-03-02T23:14:07.208Z,38.20
2023-03-02T23:15:07.182Z,33.40
2023-03-02T23:16:07.184Z,39.50
2023-03-02T23:17:07.170Z,36.80
2023-03-02T23:18:07.159Z,35.00
2023-03-02T23:19:07.170Z,34.60
2023-03-02T23:20:07.158Z,33.50
2023-03-02T23:21:07.119Z,32.80
2023-03-02T23:22:07.095Z,36.70
2023-03-02T23:23:07.221Z,31.60
2023-03-02T23:24:07.106Z,38.30
2023-03-02T23:25:07.073Z,33.90
2023-03-02T23:26:07.046Z,33.60
2023-03-02T23:27:07.039Z,32.60
2023-03-02T23:28:07.028Z,34.00
2023-03-02T23:29:07.171Z,36.80
2023-03-02T23:30:07.015Z,33.90